sensor_id;sensor_type;location;lat;lon;timestamp;P1;durP1;ratioP1;P2;durP2;ratioP2
809;SDS011;387;48.772;9.186;2023-02-15T00:01:39;43.78;;;19.20;;
809;SDS011;387;48.772;9.186;2023-02-15T00:04:06;41.70;;;18.33;;
809;SDS011;387;48.772;9.186;2023-02-15T00:06:32;46.57;;;19.80;;
809;SDS011;387;48.772;9.186;2023-02-15T00:08:59;39.28;;;18.88;;
809;SDS011;387;48.772;9.186;2023-02-15T00:11:24;40.60;;;19.10;;
809;SDS011;387;48.772;9.186;2023-02-15T00:16:37;38.13;;;17.50;;
809;SDS011;387;48.772;9.186;2023-02-15T00:19:04;47.53;;;18.85;;
809;SDS011;387;48.772;9.186;2023-02-15T00:21:31;40.30;;;18.33;;
809;SDS011;387;48.772;9.186;2023-02-15T00:23:58;46.35;;;20.38;;
809;SDS011;387;48.772;9.186;2023-02-15T00:26:25;51.33;;;21.48;;
809;SDS011;387;48.772;9.186;2023-02-15T00:28:51;44.00;;;20.65;;
809;SDS011;387;48.772;9.186;2023-02-15T00:31:17;40.03;;;19.67;;
809;SDS011;387;48.772;9.186;2023-02-15T00:33:42;44.30;;;20.33;;
809;SDS011;387;48.772;9.186;2023-02-15T00:36:09;38.50;;;18.30;;
809;SDS011;387;48.772;9.186;2023-02-15T00:38:35;39.03;;;19.63;;
809;SDS011;387;48.772;9.186;2023-02-15T00:41:02;39.97;;;20.23;;
809;SDS011;387;48.772;9.186;2023-02-15T00:43:29;41.35;;;17.48;;
809;SDS011;387;48.772;9.186;2023-02-15T00:45:56;45.73;;;18.63;;
809;SDS011;387;48.772;9.186;2023-02-15T00:48:22;42.60;;;20.23;;
809;SDS011;387;48.772;9.186;2023-02-15T00:50:55;47.00;;;20.20;;
809;SDS011;387;48.772;9.186;2023-02-15T00:53:22;38.88;;;17.42;;
809;SDS011;387;48.772;9.186;2023-02-15T00:55:48;43.15;;;17.67;;
809;SDS011;387;48.772;9.186;2023-02-15T00:58:14;45.13;;;18.00;;
809;SDS011;387;48.772;9.186;2023-02-15T01:00:40;37.90;;;17.73;;
809;SDS011;387;48.772;9.186;2023-02-15T01:03:08;45.72;;;22.17;;
809;SDS011;387;48.772;9.186;2023-02-15T01:05:34;44.67;;;20.10;;
809;SDS011;387;48.772;9.186;2023-02-15T01:08:00;43.80;;;20.20;;
809;SDS011;387;48.772;9.186;2023-02-15T01:10:26;43.83;;;18.70;;
809;SDS011;387;48.772;9.186;2023-02-15T01:12:53;36.33;;;18.37;;
809;SDS011;387;48.772;9.186;2023-02-15T01:15:19;39.75;;;19.23;;
809;SDS011;387;48.772;9.186;2023-02-15T01:17:45;43.17;;;17.27;;
809;SDS011;387;48.772;9.186;2023-02-15T01:20:16;45.55;;;19.80;;
809;SDS011;387;48.772;9.186;2023-02-15T01:22:42;37.28;;;18.40;;
809;SDS011;387;48.772;9.186;2023-02-15T01:25:08;39.00;;;18.90;;
809;SDS011;387;48.772;9.186;2023-02-15T01:27:34;46.60;;;20.03;;
809;SDS011;387;48.772;9.186;2023-02-15T01:29:59;50.10;;;20.00;;
809;SDS011;387;48.772;9.186;2023-02-15T01:32:25;46.37;;;21.17;;
809;SDS011;387;48.772;9.186;2023-02-15T01:34:51;44.10;;;20.10;;
809;SDS011;387;48.772;9.186;2023-02-15T01:37:17;42.43;;;21.57;;
809;SDS011;387;48.772;9.186;2023-02-15T01:39:43;42.83;;;21.40;;
809;SDS011;387;48.772;9.186;2023-02-15T01:42:12;41.60;;;21.30;;
809;SDS011;387;48.772;9.186;2023-02-15T01:47:22;64.38;;;25.42;;
809;SDS011;387;48.772;9.186;2023-02-15T01:52:49;54.97;;;24.90;;
809;SDS011;387;48.772;9.186;2023-02-15T01:55:21;48.75;;;21.90;;
809;SDS011;387;48.772;9.186;2023-02-15T01:57:48;54.55;;;24.10;;
809;SDS011;387;48.772;9.186;2023-02-15T02:00:16;49.60;;;22.95;;
809;SDS011;387;48.772;9.186;2023-02-15T02:02:42;55.65;;;24.00;;
809;SDS011;387;48.772;9.186;2023-02-15T02:05:09;45.78;;;19.08;;
809;SDS011;387;48.772;9.186;2023-02-15T02:07:39;44.77;;;21.27;;
809;SDS011;387;48.772;9.186;2023-02-15T02:10:09;46.95;;;21.00;;
809;SDS011;387;48.772;9.186;2023-02-15T02:12:37;51.40;;;22.42;;
809;SDS011;387;48.772;9.186;2023-02-15T02:15:05;43.42;;;17.63;;
809;SDS011;387;48.772;9.186;2023-02-15T02:29:11;38.13;;;18.63;;
809;SDS011;387;48.772;9.186;2023-02-15T02:34:50;45.67;;;19.92;;
809;SDS011;387;48.772;9.186;2023-02-15T02:37:29;39.63;;;18.90;;
809;SDS011;387;48.772;9.186;2023-02-15T02:40:19;44.35;;;19.85;;
809;SDS011;387;48.772;9.186;2023-02-15T02:42:55;45.60;;;21.23;;
809;SDS011;387;48.772;9.186;2023-02-15T02:48:05;39.05;;;18.30;;
809;SDS011;387;48.772;9.186;2023-02-15T02:50:41;42.30;;;19.80;;
809;SDS011;387;48.772;9.186;2023-02-15T02:53:06;36.43;;;18.00;;
809;SDS011;387;48.772;9.186;2023-02-15T02:55:35;45.28;;;19.75;;
809;SDS011;387;48.772;9.186;2023-02-15T03:00:57;42.50;;;20.15;;
809;SDS011;387;48.772;9.186;2023-02-15T03:03:53;38.42;;;18.77;;
809;SDS011;387;48.772;9.186;2023-02-15T03:06:42;46.13;;;20.98;;
809;SDS011;387;48.772;9.186;2023-02-15T03:09:23;44.20;;;20.17;;
809;SDS011;387;48.772;9.186;2023-02-15T03:12:07;38.80;;;20.75;;
809;SDS011;387;48.772;9.186;2023-02-15T03:14:40;37.15;;;19.67;;
809;SDS011;387;48.772;9.186;2023-02-15T03:17:07;45.38;;;20.65;;
809;SDS011;387;48.772;9.186;2023-02-15T03:19:35;44.75;;;19.85;;
809;SDS011;387;48.772;9.186;2023-02-15T03:22:04;46.47;;;20.08;;
809;SDS011;387;48.772;9.186;2023-02-15T03:24:36;51.85;;;20.83;;
809;SDS011;387;48.772;9.186;2023-02-15T03:27:07;50.28;;;20.85;;
809;SDS011;387;48.772;9.186;2023-02-15T03:29:36;47.90;;;20.98;;
809;SDS011;387;48.772;9.186;2023-02-15T03:32:03;49.78;;;20.95;;
809;SDS011;387;48.772;9.186;2023-02-15T03:34:32;45.40;;;19.92;;
809;SDS011;387;48.772;9.186;2023-02-15T03:37:00;48.47;;;20.45;;
809;SDS011;387;48.772;9.186;2023-02-15T03:39:35;45.70;;;21.80;;
809;SDS011;387;48.772;9.186;2023-02-15T03:44:58;46.90;;;20.95;;
809;SDS011;387;48.772;9.186;2023-02-15T03:47:33;51.80;;;23.15;;
809;SDS011;387;48.772;9.186;2023-02-15T03:50:04;47.17;;;22.13;;
809;SDS011;387;48.772;9.186;2023-02-15T03:52:55;55.53;;;23.75;;
809;SDS011;387;48.772;9.186;2023-02-15T03:55:23;44.20;;;23.05;;
809;SDS011;387;48.772;9.186;2023-02-15T03:57:49;43.35;;;21.90;;
809;SDS011;387;48.772;9.186;2023-02-15T04:00:35;44.60;;;21.38;;
809;SDS011;387;48.772;9.186;2023-02-15T04:03:31;56.90;;;23.35;;
809;SDS011;387;48.772;9.186;2023-02-15T04:06:07;46.15;;;23.50;;
809;SDS011;387;48.772;9.186;2023-02-15T04:08:32;51.47;;;24.47;;
809;SDS011;387;48.772;9.186;2023-02-15T04:11:17;47.30;;;20.38;;
809;SDS011;387;48.772;9.186;2023-02-15T04:13:42;50.73;;;22.70;;
809;SDS011;387;48.772;9.186;2023-02-15T04:16:08;45.77;;;22.30;;
809;SDS011;387;48.772;9.186;2023-02-15T04:18:34;49.13;;;22.50;;
809;SDS011;387;48.772;9.186;2023-02-15T04:21:24;50.90;;;23.48;;
809;SDS011;387;48.772;9.186;2023-02-15T04:24:10;43.15;;;20.98;;
809;SDS011;387;48.772;9.186;2023-02-15T04:26:55;52.25;;;21.48;;
809;SDS011;387;48.772;9.186;2023-02-15T04:29:21;45.93;;;22.03;;
809;SDS011;387;48.772;9.186;2023-02-15T04:31:48;52.28;;;23.15;;
809;SDS011;387;48.772;9.186;2023-02-15T04:34:14;43.90;;;19.63;;
809;SDS011;387;48.772;9.186;2023-02-15T04:36:40;47.42;;;22.17;;
809;SDS011;387;48.772;9.186;2023-02-15T04:39:06;39.13;;;19.07;;
809;SDS011;387;48.772;9.186;2023-02-15T04:41:32;39.30;;;19.70;;
809;SDS011;387;48.772;9.186;2023-02-15T04:43:58;46.83;;;21.20;;
809;SDS011;387;48.772;9.186;2023-02-15T04:46:25;45.63;;;20.67;;
809;SDS011;387;48.772;9.186;2023-02-15T04:48:51;51.30;;;21.65;;
809;SDS011;387;48.772;9.186;2023-02-15T04:51:17;44.43;;;21.33;;
809;SDS011;387;48.772;9.186;2023-02-15T04:53:42;42.73;;;20.20;;
809;SDS011;387;48.772;9.186;2023-02-15T04:56:08;41.33;;;19.73;;
809;SDS011;387;48.772;9.186;2023-02-15T04:58:34;54.60;;;23.23;;
809;SDS011;387;48.772;9.186;2023-02-15T05:01:00;50.50;;;22.15;;
809;SDS011;387;48.772;9.186;2023-02-15T05:03:26;42.17;;;20.20;;
809;SDS011;387;48.772;9.186;2023-02-15T05:05:51;44.03;;;19.30;;
809;SDS011;387;48.772;9.186;2023-02-15T05:08:17;44.73;;;20.00;;
809;SDS011;387;48.772;9.186;2023-02-15T05:10:43;48.43;;;22.27;;
809;SDS011;387;48.772;9.186;2023-02-15T05:13:08;43.43;;;20.37;;
809;SDS011;387;48.772;9.186;2023-02-15T05:15:34;45.80;;;21.83;;
809;SDS011;387;48.772;9.186;2023-02-15T05:17:59;57.37;;;24.67;;
809;SDS011;387;48.772;9.186;2023-02-15T05:20:26;54.80;;;22.23;;
809;SDS011;387;48.772;9.186;2023-02-15T05:22:55;46.40;;;23.40;;
809;SDS011;387;48.772;9.186;2023-02-15T05:25:20;50.58;;;22.13;;
809;SDS011;387;48.772;9.186;2023-02-15T05:28:04;46.75;;;21.15;;
809;SDS011;387;48.772;9.186;2023-02-15T05:30:45;50.70;;;23.15;;
809;SDS011;387;48.772;9.186;2023-02-15T05:33:12;49.55;;;21.13;;
809;SDS011;387;48.772;9.186;2023-02-15T05:35:37;50.93;;;21.63;;
809;SDS011;387;48.772;9.186;2023-02-15T05:38:03;47.27;;;21.77;;
809;SDS011;387;48.772;9.186;2023-02-15T05:40:28;51.90;;;21.73;;
809;SDS011;387;48.772;9.186;2023-02-15T05:42:54;45.63;;;19.63;;
809;SDS011;387;48.772;9.186;2023-02-15T05:45:21;43.85;;;21.65;;
809;SDS011;387;48.772;9.186;2023-02-15T05:47:46;48.63;;;23.27;;
809;SDS011;387;48.772;9.186;2023-02-15T05:50:12;50.93;;;20.90;;
809;SDS011;387;48.772;9.186;2023-02-15T05:52:38;53.27;;;21.33;;
809;SDS011;387;48.772;9.186;2023-02-15T05:55:04;48.13;;;19.37;;
809;SDS011;387;48.772;9.186;2023-02-15T05:57:30;46.00;;;22.20;;
809;SDS011;387;48.772;9.186;2023-02-15T05:59:56;53.75;;;21.02;;
809;SDS011;387;48.772;9.186;2023-02-15T06:02:21;38.23;;;19.17;;
809;SDS011;387;48.772;9.186;2023-02-15T06:04:47;50.20;;;21.33;;
809;SDS011;387;48.772;9.186;2023-02-15T06:07:13;51.20;;;22.73;;
809;SDS011;387;48.772;9.186;2023-02-15T06:09:38;44.60;;;20.77;;
809;SDS011;387;48.772;9.186;2023-02-15T06:12:04;46.10;;;21.73;;
809;SDS011;387;48.772;9.186;2023-02-15T06:14:30;48.37;;;21.93;;
809;SDS011;387;48.772;9.186;2023-02-15T06:16:55;43.37;;;20.80;;
809;SDS011;387;48.772;9.186;2023-02-15T06:19:21;48.27;;;21.77;;
809;SDS011;387;48.772;9.186;2023-02-15T06:21:47;46.83;;;22.08;;
809;SDS011;387;48.772;9.186;2023-02-15T06:24:14;42.45;;;20.48;;
809;SDS011;387;48.772;9.186;2023-02-15T06:26:39;50.80;;;20.83;;
809;SDS011;387;48.772;9.186;2023-02-15T06:29:05;44.50;;;21.63;;
809;SDS011;387;48.772;9.186;2023-02-15T06:31:31;54.40;;;22.40;;
809;SDS011;387;48.772;9.186;2023-02-15T06:33:56;50.40;;;21.90;;
809;SDS011;387;48.772;9.186;2023-02-15T06:36:26;51.72;;;22.20;;
809;SDS011;387;48.772;9.186;2023-02-15T06:38:53;50.05;;;22.52;;
809;SDS011;387;48.772;9.186;2023-02-15T06:41:19;50.83;;;21.87;;
809;SDS011;387;48.772;9.186;2023-02-15T06:43:44;49.80;;;20.70;;
809;SDS011;387;48.772;9.186;2023-02-15T06:46:10;46.37;;;20.70;;
809;SDS011;387;48.772;9.186;2023-02-15T06:48:36;48.17;;;22.77;;
809;SDS011;387;48.772;9.186;2023-02-15T06:51:01;45.70;;;21.13;;
809;SDS011;387;48.772;9.186;2023-02-15T06:53:27;51.53;;;22.50;;
809;SDS011;387;48.772;9.186;2023-02-15T06:55:52;51.33;;;21.60;;
809;SDS011;387;48.772;9.186;2023-02-15T06:58:31;42.58;;;20.52;;
809;SDS011;387;48.772;9.186;2023-02-15T07:01:08;48.55;;;24.00;;
809;SDS011;387;48.772;9.186;2023-02-15T07:03:34;43.50;;;22.80;;
809;SDS011;387;48.772;9.186;2023-02-15T07:06:01;44.95;;;21.00;;
809;SDS011;387;48.772;9.186;2023-02-15T07:08:28;47.22;;;20.58;;
809;SDS011;387;48.772;9.186;2023-02-15T07:10:54;49.85;;;21.67;;
809;SDS011;387;48.772;9.186;2023-02-15T07:13:43;57.47;;;23.80;;
809;SDS011;387;48.772;9.186;2023-02-15T07:16:09;50.73;;;21.60;;
809;SDS011;387;48.772;9.186;2023-02-15T07:18:35;47.33;;;22.60;;
809;SDS011;387;48.772;9.186;2023-02-15T07:21:01;54.20;;;23.30;;
809;SDS011;387;48.772;9.186;2023-02-15T07:23:27;61.50;;;24.00;;
809;SDS011;387;48.772;9.186;2023-02-15T07:25:56;56.97;;;22.13;;
809;SDS011;387;48.772;9.186;2023-02-15T07:28:22;61.80;;;24.52;;
809;SDS011;387;48.772;9.186;2023-02-15T07:30:48;58.80;;;22.63;;
809;SDS011;387;48.772;9.186;2023-02-15T07:33:13;54.10;;;22.93;;
809;SDS011;387;48.772;9.186;2023-02-15T07:35:48;52.75;;;25.73;;
809;SDS011;387;48.772;9.186;2023-02-15T07:38:15;59.67;;;24.40;;
809;SDS011;387;48.772;9.186;2023-02-15T07:40:41;57.27;;;24.97;;
809;SDS011;387;48.772;9.186;2023-02-15T07:43:07;59.55;;;25.85;;
809;SDS011;387;48.772;9.186;2023-02-15T07:45:33;51.40;;;23.63;;
809;SDS011;387;48.772;9.186;2023-02-15T07:48:00;54.80;;;22.83;;
809;SDS011;387;48.772;9.186;2023-02-15T07:50:26;52.65;;;25.15;;
809;SDS011;387;48.772;9.186;2023-02-15T07:52:52;61.73;;;25.03;;
809;SDS011;387;48.772;9.186;2023-02-15T07:55:17;59.63;;;25.50;;
809;SDS011;387;48.772;9.186;2023-02-15T07:57:44;56.85;;;26.05;;
809;SDS011;387;48.772;9.186;2023-02-15T08:00:11;58.95;;;24.65;;
809;SDS011;387;48.772;9.186;2023-02-15T08:02:53;52.30;;;24.38;;
809;SDS011;387;48.772;9.186;2023-02-15T08:05:42;63.40;;;26.85;;
809;SDS011;387;48.772;9.186;2023-02-15T08:08:09;59.97;;;25.13;;
809;SDS011;387;48.772;9.186;2023-02-15T08:13:57;63.00;;;26.30;;
809;SDS011;387;48.772;9.186;2023-02-15T08:16:31;63.00;;;24.23;;
809;SDS011;387;48.772;9.186;2023-02-15T08:21:34;72.32;;;26.73;;
809;SDS011;387;48.772;9.186;2023-02-15T08:24:02;58.80;;;26.23;;
809;SDS011;387;48.772;9.186;2023-02-15T08:26:28;61.97;;;25.60;;
809;SDS011;387;48.772;9.186;2023-02-15T08:28:55;57.70;;;25.95;;
809;SDS011;387;48.772;9.186;2023-02-15T08:31:20;58.60;;;25.13;;
809;SDS011;387;48.772;9.186;2023-02-15T08:33:47;59.53;;;28.33;;
809;SDS011;387;48.772;9.186;2023-02-15T08:36:15;62.22;;;25.73;;
809;SDS011;387;48.772;9.186;2023-02-15T08:38:43;64.32;;;25.58;;
809;SDS011;387;48.772;9.186;2023-02-15T08:41:10;55.50;;;26.77;;
809;SDS011;387;48.772;9.186;2023-02-15T08:43:44;57.15;;;24.98;;
809;SDS011;387;48.772;9.186;2023-02-15T08:46:11;63.22;;;26.17;;
809;SDS011;387;48.772;9.186;2023-02-15T08:48:37;54.67;;;24.35;;
809;SDS011;387;48.772;9.186;2023-02-15T08:51:13;60.60;;;25.37;;
809;SDS011;387;48.772;9.186;2023-02-15T08:53:47;52.42;;;23.98;;
809;SDS011;387;48.772;9.186;2023-02-15T08:56:15;59.20;;;24.30;;
809;SDS011;387;48.772;9.186;2023-02-15T08:58:42;58.42;;;25.67;;
809;SDS011;387;48.772;9.186;2023-02-15T09:01:12;61.43;;;23.97;;
809;SDS011;387;48.772;9.186;2023-02-15T09:03:42;54.90;;;21.85;;
809;SDS011;387;48.772;9.186;2023-02-15T09:06:09;54.58;;;25.92;;
809;SDS011;387;48.772;9.186;2023-02-15T09:08:35;57.35;;;25.85;;
809;SDS011;387;48.772;9.186;2023-02-15T09:11:05;59.83;;;25.80;;
809;SDS011;387;48.772;9.186;2023-02-15T09:13:31;53.35;;;26.27;;
809;SDS011;387;48.772;9.186;2023-02-15T09:16:03;56.93;;;27.53;;
809;SDS011;387;48.772;9.186;2023-02-15T09:18:34;58.22;;;26.95;;
809;SDS011;387;48.772;9.186;2023-02-15T09:21:07;56.22;;;24.67;;
809;SDS011;387;48.772;9.186;2023-02-15T09:23:35;54.92;;;25.02;;
809;SDS011;387;48.772;9.186;2023-02-15T09:26:02;57.00;;;26.80;;
809;SDS011;387;48.772;9.186;2023-02-15T09:28:29;59.90;;;25.27;;
809;SDS011;387;48.772;9.186;2023-02-15T09:30:54;49.17;;;24.00;;
809;SDS011;387;48.772;9.186;2023-02-15T09:33:20;51.30;;;22.57;;
809;SDS011;387;48.772;9.186;2023-02-15T09:35:47;53.80;;;24.02;;
809;SDS011;387;48.772;9.186;2023-02-15T09:38:12;57.57;;;25.23;;
809;SDS011;387;48.772;9.186;2023-02-15T09:40:41;54.75;;;26.90;;
809;SDS011;387;48.772;9.186;2023-02-15T09:43:24;59.58;;;26.85;;
809;SDS011;387;48.772;9.186;2023-02-15T09:46:09;53.45;;;24.17;;
809;SDS011;387;48.772;9.186;2023-02-15T09:48:45;56.97;;;24.63;;
809;SDS011;387;48.772;9.186;2023-02-15T09:54:17;55.65;;;25.90;;
809;SDS011;387;48.772;9.186;2023-02-15T10:00:01;52.58;;;24.20;;
809;SDS011;387;48.772;9.186;2023-02-15T10:02:51;56.65;;;27.58;;
809;SDS011;387;48.772;9.186;2023-02-15T10:05:37;49.65;;;24.83;;
809;SDS011;387;48.772;9.186;2023-02-15T10:14:08;55.08;;;24.65;;
809;SDS011;387;48.772;9.186;2023-02-15T10:27:51;59.42;;;25.83;;
809;SDS011;387;48.772;9.186;2023-02-15T10:30:27;54.93;;;24.40;;
809;SDS011;387;48.772;9.186;2023-02-15T10:33:37;56.17;;;24.55;;
809;SDS011;387;48.772;9.186;2023-02-15T10:36:13;53.08;;;23.27;;
809;SDS011;387;48.772;9.186;2023-02-15T10:39:00;50.57;;;25.47;;
809;SDS011;387;48.772;9.186;2023-02-15T10:41:43;47.63;;;24.33;;
809;SDS011;387;48.772;9.186;2023-02-15T11:01:23;56.60;;;23.57;;
809;SDS011;387;48.772;9.186;2023-02-15T11:06:27;40.40;;;21.20;;
809;SDS011;387;48.772;9.186;2023-02-15T11:08:59;41.10;;;21.67;;
809;SDS011;387;48.772;9.186;2023-02-15T11:11:34;47.30;;;22.23;;
809;SDS011;387;48.772;9.186;2023-02-15T11:14:14;37.83;;;21.23;;
809;SDS011;387;48.772;9.186;2023-02-15T11:17:05;41.77;;;21.30;;
809;SDS011;387;48.772;9.186;2023-02-15T11:19:53;39.50;;;20.53;;
809;SDS011;387;48.772;9.186;2023-02-15T11:22:23;40.87;;;21.47;;
809;SDS011;387;48.772;9.186;2023-02-15T11:24:49;39.43;;;21.03;;
809;SDS011;387;48.772;9.186;2023-02-15T11:27:18;38.70;;;20.90;;
809;SDS011;387;48.772;9.186;2023-02-15T11:30:09;40.93;;;21.50;;
809;SDS011;387;48.772;9.186;2023-02-15T11:32:43;48.70;;;22.93;;
809;SDS011;387;48.772;9.186;2023-02-15T11:37:50;47.50;;;23.40;;
809;SDS011;387;48.772;9.186;2023-02-15T11:40:23;37.97;;;21.73;;
809;SDS011;387;48.772;9.186;2023-02-15T11:42:54;32.57;;;21.33;;
809;SDS011;387;48.772;9.186;2023-02-15T11:45:26;45.97;;;22.93;;
809;SDS011;387;48.772;9.186;2023-02-15T11:47:54;43.40;;;23.30;;
809;SDS011;387;48.772;9.186;2023-02-15T11:50:22;43.90;;;22.40;;
809;SDS011;387;48.772;9.186;2023-02-15T11:52:59;42.40;;;22.63;;
809;SDS011;387;48.772;9.186;2023-02-15T11:55:26;45.90;;;23.10;;
809;SDS011;387;48.772;9.186;2023-02-15T11:58:09;45.83;;;22.70;;
809;SDS011;387;48.772;9.186;2023-02-15T12:00:52;43.17;;;23.00;;
809;SDS011;387;48.772;9.186;2023-02-15T12:03:44;40.43;;;20.87;;
809;SDS011;387;48.772;9.186;2023-02-15T12:06:23;46.77;;;23.33;;
809;SDS011;387;48.772;9.186;2023-02-15T12:08:55;39.70;;;22.93;;
809;SDS011;387;48.772;9.186;2023-02-15T12:11:37;48.97;;;23.50;;
809;SDS011;387;48.772;9.186;2023-02-15T12:14:05;43.57;;;23.30;;
809;SDS011;387;48.772;9.186;2023-02-15T12:19:24;38.60;;;22.20;;
809;SDS011;387;48.772;9.186;2023-02-15T12:21:57;45.60;;;24.10;;
809;SDS011;387;48.772;9.186;2023-02-15T12:24:28;45.17;;;24.70;;
809;SDS011;387;48.772;9.186;2023-02-15T12:27:05;39.47;;;21.43;;
809;SDS011;387;48.772;9.186;2023-02-15T12:29:35;36.77;;;21.77;;
809;SDS011;387;48.772;9.186;2023-02-15T12:32:08;36.57;;;22.17;;
809;SDS011;387;48.772;9.186;2023-02-15T12:35:08;41.47;;;23.40;;
809;SDS011;387;48.772;9.186;2023-02-15T12:37:39;45.80;;;22.50;;
809;SDS011;387;48.772;9.186;2023-02-15T12:40:28;41.10;;;22.63;;
809;SDS011;387;48.772;9.186;2023-02-15T12:42:55;44.47;;;23.67;;
809;SDS011;387;48.772;9.186;2023-02-15T12:48:22;45.13;;;23.07;;
809;SDS011;387;48.772;9.186;2023-02-15T12:50:43;41.47;;;22.40;;
809;SDS011;387;48.772;9.186;2023-02-15T12:53:30;51.23;;;24.03;;
809;SDS011;387;48.772;9.186;2023-02-15T12:55:59;39.47;;;23.00;;
809;SDS011;387;48.772;9.186;2023-02-15T12:58:32;42.70;;;23.37;;
809;SDS011;387;48.772;9.186;2023-02-15T13:03:59;43.90;;;25.07;;
809;SDS011;387;48.772;9.186;2023-02-15T13:06:28;43.37;;;23.23;;
809;SDS011;387;48.772;9.186;2023-02-15T13:08:57;44.60;;;24.20;;
809;SDS011;387;48.772;9.186;2023-02-15T13:11:32;47.80;;;24.60;;
809;SDS011;387;48.772;9.186;2023-02-15T13:14:18;47.27;;;24.93;;
809;SDS011;387;48.772;9.186;2023-02-15T13:16:52;53.70;;;24.00;;
809;SDS011;387;48.772;9.186;2023-02-15T13:19:39;45.00;;;23.73;;
809;SDS011;387;48.772;9.186;2023-02-15T13:22:10;44.13;;;24.10;;
809;SDS011;387;48.772;9.186;2023-02-15T13:24:41;40.47;;;23.60;;
809;SDS011;387;48.772;9.186;2023-02-15T13:27:19;44.23;;;23.63;;
809;SDS011;387;48.772;9.186;2023-02-15T13:29:49;40.00;;;23.50;;
809;SDS011;387;48.772;9.186;2023-02-15T13:32:30;38.73;;;22.27;;
809;SDS011;387;48.772;9.186;2023-02-15T13:35:01;41.83;;;23.13;;
809;SDS011;387;48.772;9.186;2023-02-15T13:46:07;47.90;;;23.90;;
809;SDS011;387;48.772;9.186;2023-02-15T13:54:27;44.57;;;24.57;;
809;SDS011;387;48.772;9.186;2023-02-15T14:05:28;39.00;;;23.13;;
809;SDS011;387;48.772;9.186;2023-02-15T14:24:43;44.17;;;22.87;;
809;SDS011;387;48.772;9.186;2023-02-15T14:27:37;48.43;;;22.30;;
809;SDS011;387;48.772;9.186;2023-02-15T14:30:12;39.67;;;22.60;;
809;SDS011;387;48.772;9.186;2023-02-15T14:32:44;42.70;;;20.77;;
809;SDS011;387;48.772;9.186;2023-02-15T14:35:13;39.50;;;20.97;;
809;SDS011;387;48.772;9.186;2023-02-15T14:43:19;34.20;;;18.93;;
809;SDS011;387;48.772;9.186;2023-02-15T14:45:58;38.60;;;20.43;;
809;SDS011;387;48.772;9.186;2023-02-15T14:48:48;33.47;;;18.10;;
809;SDS011;387;48.772;9.186;2023-02-15T14:56:46;35.80;;;17.30;;
809;SDS011;387;48.772;9.186;2023-02-15T15:04:38;34.40;;;21.00;;
809;SDS011;387;48.772;9.186;2023-02-15T15:07:09;39.33;;;20.40;;
809;SDS011;387;48.772;9.186;2023-02-15T15:09:42;39.40;;;20.07;;
809;SDS011;387;48.772;9.186;2023-02-15T15:14:51;36.20;;;21.20;;
809;SDS011;387;48.772;9.186;2023-02-15T15:20:03;35.30;;;19.30;;
809;SDS011;387;48.772;9.186;2023-02-15T15:22:38;41.33;;;19.43;;
809;SDS011;387;48.772;9.186;2023-02-15T15:27:58;38.60;;;21.93;;
809;SDS011;387;48.772;9.186;2023-02-15T15:44:01;30.07;;;19.60;;
809;SDS011;387;48.772;9.186;2023-02-15T15:49:17;37.83;;;20.10;;
809;SDS011;387;48.772;9.186;2023-02-15T15:51:45;39.27;;;21.50;;
809;SDS011;387;48.772;9.186;2023-02-15T15:54:14;39.57;;;21.17;;
809;SDS011;387;48.772;9.186;2023-02-15T15:56:40;40.93;;;21.83;;
809;SDS011;387;48.772;9.186;2023-02-15T15:59:17;34.33;;;20.57;;
809;SDS011;387;48.772;9.186;2023-02-15T16:01:51;44.60;;;23.40;;
809;SDS011;387;48.772;9.186;2023-02-15T16:04:27;38.57;;;22.07;;
809;SDS011;387;48.772;9.186;2023-02-15T16:06:55;37.50;;;22.40;;
809;SDS011;387;48.772;9.186;2023-02-15T16:09:25;38.63;;;22.13;;
809;SDS011;387;48.772;9.186;2023-02-15T16:11:52;40.20;;;23.30;;
809;SDS011;387;48.772;9.186;2023-02-15T16:14:28;38.60;;;22.00;;
809;SDS011;387;48.772;9.186;2023-02-15T16:17:00;39.00;;;21.57;;
809;SDS011;387;48.772;9.186;2023-02-15T16:19:30;43.00;;;23.83;;
809;SDS011;387;48.772;9.186;2023-02-15T16:21:59;48.63;;;23.60;;
809;SDS011;387;48.772;9.186;2023-02-15T16:24:43;47.90;;;23.37;;
809;SDS011;387;48.772;9.186;2023-02-15T16:29:51;39.53;;;20.40;;
809;SDS011;387;48.772;9.186;2023-02-15T16:32:18;41.17;;;21.77;;
809;SDS011;387;48.772;9.186;2023-02-15T16:34:53;37.53;;;19.20;;
809;SDS011;387;48.772;9.186;2023-02-15T16:37:22;38.13;;;20.40;;
809;SDS011;387;48.772;9.186;2023-02-15T16:39:51;38.23;;;20.83;;
809;SDS011;387;48.772;9.186;2023-02-15T16:42:18;46.27;;;23.27;;
809;SDS011;387;48.772;9.186;2023-02-15T16:45:29;49.60;;;23.40;;
809;SDS011;387;48.772;9.186;2023-02-15T16:47:39;44.20;;;22.00;;
809;SDS011;387;48.772;9.186;2023-02-15T16:50:16;47.10;;;24.50;;
809;SDS011;387;48.772;9.186;2023-02-15T16:52:44;59.83;;;26.53;;
809;SDS011;387;48.772;9.186;2023-02-15T16:55:18;50.37;;;25.10;;
809;SDS011;387;48.772;9.186;2023-02-15T16:57:49;55.33;;;26.40;;
809;SDS011;387;48.772;9.186;2023-02-15T17:00:20;49.97;;;26.70;;
809;SDS011;387;48.772;9.186;2023-02-15T17:02:59;55.03;;;25.87;;
809;SDS011;387;48.772;9.186;2023-02-15T17:05:42;48.23;;;22.30;;
809;SDS011;387;48.772;9.186;2023-02-15T17:08:15;45.03;;;23.00;;
809;SDS011;387;48.772;9.186;2023-02-15T17:13:23;33.30;;;19.47;;
809;SDS011;387;48.772;9.186;2023-02-15T17:18:24;34.90;;;19.77;;
809;SDS011;387;48.772;9.186;2023-02-15T17:21:10;44.70;;;20.37;;
809;SDS011;387;48.772;9.186;2023-02-15T17:23:42;40.03;;;19.23;;
809;SDS011;387;48.772;9.186;2023-02-15T17:26:20;38.53;;;20.17;;
809;SDS011;387;48.772;9.186;2023-02-15T17:28:50;36.60;;;20.57;;
809;SDS011;387;48.772;9.186;2023-02-15T17:31:25;39.13;;;20.50;;
809;SDS011;387;48.772;9.186;2023-02-15T17:33:54;37.23;;;20.17;;
809;SDS011;387;48.772;9.186;2023-02-15T17:36:22;37.10;;;19.90;;
809;SDS011;387;48.772;9.186;2023-02-15T17:41:23;40.60;;;19.37;;
809;SDS011;387;48.772;9.186;2023-02-15T17:43:50;36.57;;;18.07;;
809;SDS011;387;48.772;9.186;2023-02-15T17:46:15;35.73;;;18.30;;
809;SDS011;387;48.772;9.186;2023-02-15T17:48:44;32.03;;;17.73;;
809;SDS011;387;48.772;9.186;2023-02-15T17:51:13;33.17;;;17.13;;
809;SDS011;387;48.772;9.186;2023-02-15T17:53:39;37.57;;;17.50;;
809;SDS011;387;48.772;9.186;2023-02-15T17:56:05;36.03;;;17.50;;
809;SDS011;387;48.772;9.186;2023-02-15T17:58:36;33.70;;;18.20;;
809;SDS011;387;48.772;9.186;2023-02-15T18:01:04;36.37;;;16.93;;
809;SDS011;387;48.772;9.186;2023-02-15T18:03:51;37.30;;;18.77;;
809;SDS011;387;48.772;9.186;2023-02-15T18:06:36;31.77;;;17.20;;
809;SDS011;387;48.772;9.186;2023-02-15T18:09:22;42.27;;;20.00;;
809;SDS011;387;48.772;9.186;2023-02-15T18:14:46;35.47;;;18.80;;
809;SDS011;387;48.772;9.186;2023-02-15T18:17:12;33.53;;;18.03;;
809;SDS011;387;48.772;9.186;2023-02-15T18:19:39;36.37;;;18.17;;
809;SDS011;387;48.772;9.186;2023-02-15T18:22:10;37.10;;;18.70;;
809;SDS011;387;48.772;9.186;2023-02-15T18:24:36;35.03;;;18.67;;
809;SDS011;387;48.772;9.186;2023-02-15T18:27:03;39.57;;;20.60;;
809;SDS011;387;48.772;9.186;2023-02-15T18:29:29;36.00;;;19.80;;
809;SDS011;387;48.772;9.186;2023-02-15T18:31:55;40.10;;;20.33;;
809;SDS011;387;48.772;9.186;2023-02-15T18:34:31;40.40;;;20.13;;
809;SDS011;387;48.772;9.186;2023-02-15T18:37:02;39.37;;;19.10;;
809;SDS011;387;48.772;9.186;2023-02-15T18:42:19;43.03;;;21.23;;
809;SDS011;387;48.772;9.186;2023-02-15T18:44:47;44.50;;;21.70;;
809;SDS011;387;48.772;9.186;2023-02-15T18:47:13;46.27;;;22.80;;